sensor_id;sensor_type;location;lat;lon;timestamp;temperature;humidity
39825;DHT22;25503;52.532;13.640;2023-04-07T00:01:22;2.10;99.90
39825;DHT22;25503;52.532;13.640;2023-04-07T00:03:48;2.10;99.90
39825;DHT22;25503;52.532;13.640;2023-04-07T00:06:13;2.10;99.90
39825;DHT22;25503;52.532;13.640;2023-04-07T00:08:40;2.00;99.90
39825;DHT22;25503;52.532;13.640;2023-04-07T00:11:06;2.00;99.90
39825;DHT22;25503;52.532;13.640;2023-04-07T00:13:33;1.90;99.90
39825;DHT22;25503;52.532;13.640;2023-04-07T00:15:58;1.90;99.90
39825;DHT22;25503;52.532;13.640;2023-04-07T00:18:24;1.90;99.90
39825;DHT22;25503;52.532;13.640;2023-04-07T00:20:49;1.80;99.90
39825;DHT22;25503;52.532;13.640;2023-04-07T00:23:15;1.70;99.90
39825;DHT22;25503;52.532;13.640;2023-04-07T00:25:41;1.80;99.90
39825;DHT22;25503;52.532;13.640;2023-04-07T00:28:06;1.70;99.90
39825;DHT22;25503;52.532;13.640;2023-04-07T00:30:32;1.70;99.90
39825;DHT22;25503;52.532;13.640;2023-04-07T00:32:57;1.60;99.90
39825;DHT22;25503;52.532;13.640;2023-04-07T00:35:23;1.70;99.90
39825;DHT22;25503;52.532;13.640;2023-04-07T00:37:48;1.50;99.90
39825;DHT22;25503;52.532;13.640;2023-04-07T00:40:14;1.50;99.90
39825;DHT22;25503;52.532;13.640;2023-04-07T00:42:39;1.50;99.90
39825;DHT22;25503;52.532;13.640;2023-04-07T00:45:05;1.40;99.90
39825;DHT22;25503;52.532;13.640;2023-04-07T00:47:31;1.50;99.90
39825;DHT22;25503;52.532;13.640;2023-04-07T00:49:57;1.50;99.90
39825;DHT22;25503;52.532;13.640;2023-04-07T00:52:23;1.40;99.90
39825;DHT22;25503;52.532;13.640;2023-04-07T00:54:57;1.50;99.90
39825;DHT22;25503;52.532;13.640;2023-04-07T00:57:23;1.30;99.90
39825;DHT22;25503;52.532;13.640;2023-04-07T00:59:53;1.30;99.90
39825;DHT22;25503;52.532;13.640;2023-04-07T01:02:31;1.30;99.90
39825;DHT22;25503;52.532;13.640;2023-04-07T01:10:48;1.30;99.90
39825;DHT22;25503;52.532;13.640;2023-04-07T01:13:22;1.20;99.90
39825;DHT22;25503;52.532;13.640;2023-04-07T01:15:51;1.20;99.90
39825;DHT22;25503;52.532;13.640;2023-04-07T01:18:25;1.10;99.90
39825;DHT22;25503;52.532;13.640;2023-04-07T01:20:56;1.10;99.90
39825;DHT22;25503;52.532;13.640;2023-04-07T01:23:48;1.10;99.90
39825;DHT22;25503;52.532;13.640;2023-04-07T01:26:25;1.00;99.90
39825;DHT22;25503;52.532;13.640;2023-04-07T01:31:48;0.90;99.90
39825;DHT22;25503;52.532;13.640;2023-04-07T01:34:16;0.80;99.90
39825;DHT22;25503;52.532;13.640;2023-04-07T01:36:43;0.90;99.90
39825;DHT22;25503;52.532;13.640;2023-04-07T01:39:10;0.90;99.90
39825;DHT22;25503;52.532;13.640;2023-04-07T01:41:37;0.90;99.90
39825;DHT22;25503;52.532;13.640;2023-04-07T01:44:05;0.90;99.90
39825;DHT22;25503;52.532;13.640;2023-04-07T01:46:33;0.80;99.90
39825;DHT22;25503;52.532;13.640;2023-04-07T01:48:58;0.90;99.90
39825;DHT22;25503;52.532;13.640;2023-04-07T01:51:25;0.90;99.90
39825;DHT22;25503;52.532;13.640;2023-04-07T01:53:53;1.00;99.90
39825;DHT22;25503;52.532;13.640;2023-04-07T01:56:18;0.90;99.90
39825;DHT22;25503;52.532;13.640;2023-04-07T01:58:44;0.90;99.90
39825;DHT22;25503;52.532;13.640;2023-04-07T02:01:10;0.90;99.90
39825;DHT22;25503;52.532;13.640;2023-04-07T02:03:46;0.90;99.90
39825;DHT22;25503;52.532;13.640;2023-04-07T02:06:18;0.90;99.90
39825;DHT22;25503;52.532;13.640;2023-04-07T02:08:48;0.90;99.90
39825;DHT22;25503;52.532;13.640;2023-04-07T02:11:17;0.80;99.90
39825;DHT22;25503;52.532;13.640;2023-04-07T02:13:45;0.80;99.90
39825;DHT22;25503;52.532;13.640;2023-04-07T02:16:12;0.70;99.90
39825;DHT22;25503;52.532;13.640;2023-04-07T02:18:38;0.70;99.90
39825;DHT22;25503;52.532;13.640;2023-04-07T02:21:06;0.70;99.90
39825;DHT22;25503;52.532;13.640;2023-04-07T02:23:34;0.70;99.90
39825;DHT22;25503;52.532;13.640;2023-04-07T02:26:00;0.70;99.90
39825;DHT22;25503;52.532;13.640;2023-04-07T02:28:25;0.70;99.90
39825;DHT22;25503;52.532;13.640;2023-04-07T02:30:51;0.70;99.90
39825;DHT22;25503;52.532;13.640;2023-04-07T02:33:16;0.70;99.90
39825;DHT22;25503;52.532;13.640;2023-04-07T02:35:42;0.80;99.90
39825;DHT22;25503;52.532;13.640;2023-04-07T02:38:08;0.70;99.90
39825;DHT22;25503;52.532;13.640;2023-04-07T02:40:34;0.80;99.90
39825;DHT22;25503;52.532;13.640;2023-04-07T02:43:01;0.80;99.90
39825;DHT22;25503;52.532;13.640;2023-04-07T02:45:27;0.80;99.90
39825;DHT22;25503;52.532;13.640;2023-04-07T02:47:52;0.80;99.90
39825;DHT22;25503;52.532;13.640;2023-04-07T02:50:18;0.80;99.90
39825;DHT22;25503;52.532;13.640;2023-04-07T02:52:43;0.90;99.90
39825;DHT22;25503;52.532;13.640;2023-04-07T02:55:09;0.80;99.90
39825;DHT22;25503;52.532;13.640;2023-04-07T02:57:35;0.80;99.90
39825;DHT22;25503;52.532;13.640;2023-04-07T03:00:01;0.80;99.90
39825;DHT22;25503;52.532;13.640;2023-04-07T03:02:26;0.80;99.90
39825;DHT22;25503;52.532;13.640;2023-04-07T03:04:52;0.80;99.90
39825;DHT22;25503;52.532;13.640;2023-04-07T03:07:18;0.80;99.90
39825;DHT22;25503;52.532;13.640;2023-04-07T03:09:43;0.90;99.90
39825;DHT22;25503;52.532;13.640;2023-04-07T03:12:09;0.80;99.90
39825;DHT22;25503;52.532;13.640;2023-04-07T03:14:35;0.90;99.90
39825;DHT22;25503;52.532;13.640;2023-04-07T03:17:02;0.90;99.90
39825;DHT22;25503;52.532;13.640;2023-04-07T03:19:27;0.90;99.90
39825;DHT22;25503;52.532;13.640;2023-04-07T03:21:53;0.90;99.90
39825;DHT22;25503;52.532;13.640;2023-04-07T03:24:19;0.90;99.90
39825;DHT22;25503;52.532;13.640;2023-04-07T03:26:44;0.90;99.90
39825;DHT22;25503;52.532;13.640;2023-04-07T03:29:10;0.90;99.90
39825;DHT22;25503;52.532;13.640;2023-04-07T03:31:35;0.90;99.90
39825;DHT22;25503;52.532;13.640;2023-04-07T03:34:02;0.90;99.90
39825;DHT22;25503;52.532;13.640;2023-04-07T03:36:28;0.90;99.90
39825;DHT22;25503;52.532;13.640;2023-04-07T03:38:56;1.00;99.90
39825;DHT22;25503;52.532;13.640;2023-04-07T03:41:21;1.00;99.90
39825;DHT22;25503;52.532;13.640;2023-04-07T03:43:47;0.90;99.90
39825;DHT22;25503;52.532;13.640;2023-04-07T03:46:13;0.90;99.90
39825;DHT22;25503;52.532;13.640;2023-04-07T03:48:38;0.90;99.90
39825;DHT22;25503;52.532;13.640;2023-04-07T03:51:05;0.90;99.90
39825;DHT22;25503;52.532;13.640;2023-04-07T03:53:31;0.90;99.90
39825;DHT22;25503;52.532;13.640;2023-04-07T03:55:57;0.90;99.90
39825;DHT22;25503;52.532;13.640;2023-04-07T03:58:22;1.00;99.90
39825;DHT22;25503;52.532;13.640;2023-04-07T04:00:48;0.90;99.90
39825;DHT22;25503;52.532;13.640;2023-04-07T04:03:13;0.90;99.90
39825;DHT22;25503;52.532;13.640;2023-04-07T04:05:39;1.00;99.90
39825;DHT22;25503;52.532;13.640;2023-04-07T04:08:05;0.90;99.90
39825;DHT22;25503;52.532;13.640;2023-04-07T04:10:31;1.00;99.90
39825;DHT22;25503;52.532;13.640;2023-04-07T04:12:56;1.00;99.90
39825;DHT22;25503;52.532;13.640;2023-04-07T04:15:25;1.00;99.90
39825;DHT22;25503;52.532;13.640;2023-04-07T04:17:51;1.00;99.90
39825;DHT22;25503;52.532;13.640;2023-04-07T04:20:16;1.10;99.90
39825;DHT22;25503;52.532;13.640;2023-04-07T04:22:42;1.10;99.90
39825;DHT22;25503;52.532;13.640;2023-04-07T04:25:08;1.00;99.90
39825;DHT22;25503;52.532;13.640;2023-04-07T04:27:34;1.00;99.90
39825;DHT22;25503;52.532;13.640;2023-04-07T04:29:59;1.10;99.90
39825;DHT22;25503;52.532;13.640;2023-04-07T04:32:25;1.10;99.90
39825;DHT22;25503;52.532;13.640;2023-04-07T04:34:51;1.10;99.90
39825;DHT22;25503;52.532;13.640;2023-04-07T04:37:16;1.10;99.90
39825;DHT22;25503;52.532;13.640;2023-04-07T04:39:42;1.20;99.90
39825;DHT22;25503;52.532;13.640;2023-04-07T04:42:07;1.20;99.90
39825;DHT22;25503;52.532;13.640;2023-04-07T04:44:33;1.20;99.90
39825;DHT22;25503;52.532;13.640;2023-04-07T04:46:59;1.30;99.90
39825;DHT22;25503;52.532;13.640;2023-04-07T04:49:24;1.30;99.90
39825;DHT22;25503;52.532;13.640;2023-04-07T04:51:50;1.30;99.90
39825;DHT22;25503;52.532;13.640;2023-04-07T04:54:19;1.30;99.90
39825;DHT22;25503;52.532;13.640;2023-04-07T04:56:45;1.40;99.90
39825;DHT22;25503;52.532;13.640;2023-04-07T04:59:10;1.40;99.90
39825;DHT22;25503;52.532;13.640;2023-04-07T05:01:36;1.50;99.90
39825;DHT22;25503;52.532;13.640;2023-04-07T05:04:01;1.50;99.90
39825;DHT22;25503;52.532;13.640;2023-04-07T05:06:27;1.50;99.90
39825;DHT22;25503;52.532;13.640;2023-04-07T05:08:53;1.60;99.90
39825;DHT22;25503;52.532;13.640;2023-04-07T05:11:19;1.70;99.90
39825;DHT22;25503;52.532;13.640;2023-04-07T05:13:46;1.80;99.90
39825;DHT22;25503;52.532;13.640;2023-04-07T05:16:11;1.80;99.90
39825;DHT22;25503;52.532;13.640;2023-04-07T05:18:37;1.90;99.90
39825;DHT22;25503;52.532;13.640;2023-04-07T05:21:03;1.90;99.90
39825;DHT22;25503;52.532;13.640;2023-04-07T05:23:28;2.10;99.90
39825;DHT22;25503;52.532;13.640;2023-04-07T05:25:54;2.10;99.90
39825;DHT22;25503;52.532;13.640;2023-04-07T05:28:20;2.20;99.90
39825;DHT22;25503;52.532;13.640;2023-04-07T05:30:45;2.30;99.90
39825;DHT22;25503;52.532;13.640;2023-04-07T05:33:12;2.30;99.90
39825;DHT22;25503;52.532;13.640;2023-04-07T05:35:37;2.30;99.90
39825;DHT22;25503;52.532;13.640;2023-04-07T05:38:03;2.40;99.90
39825;DHT22;25503;52.532;13.640;2023-04-07T05:40:28;2.40;99.90
39825;DHT22;25503;52.532;13.640;2023-04-07T05:42:57;2.50;99.90
39825;DHT22;25503;52.532;13.640;2023-04-07T05:45:22;2.50;99.90
39825;DHT22;25503;52.532;13.640;2023-04-07T05:47:48;2.60;99.90
39825;DHT22;25503;52.532;13.640;2023-04-07T05:50:16;2.60;99.90
39825;DHT22;25503;52.532;13.640;2023-04-07T05:52:42;2.60;99.90
39825;DHT22;25503;52.532;13.640;2023-04-07T05:55:07;2.60;99.90
39825;DHT22;25503;52.532;13.640;2023-04-07T05:57:33;2.70;99.90
39825;DHT22;25503;52.532;13.640;2023-04-07T05:59:59;2.80;99.90
39825;DHT22;25503;52.532;13.640;2023-04-07T06:02:25;2.80;99.90
39825;DHT22;25503;52.532;13.640;2023-04-07T06:04:50;2.80;99.90
39825;DHT22;25503;52.532;13.640;2023-04-07T06:07:16;2.90;99.90
39825;DHT22;25503;52.532;13.640;2023-04-07T06:09:41;2.90;99.90
39825;DHT22;25503;52.532;13.640;2023-04-07T06:12:08;3.10;99.90
39825;DHT22;25503;52.532;13.640;2023-04-07T06:14:35;3.10;99.90
39825;DHT22;25503;52.532;13.640;2023-04-07T06:17:00;3.20;99.90
39825;DHT22;25503;52.532;13.640;2023-04-07T06:19:26;3.20;99.90
39825;DHT22;25503;52.532;13.640;2023-04-07T06:21:52;3.30;99.90
39825;DHT22;25503;52.532;13.640;2023-04-07T06:24:18;3.30;99.90
39825;DHT22;25503;52.532;13.640;2023-04-07T06:26:47;3.30;99.90
39825;DHT22;25503;52.532;13.640;2023-04-07T06:29:13;3.40;99.90
39825;DHT22;25503;52.532;13.640;2023-04-07T06:31:39;3.50;99.90
39825;DHT22;25503;52.532;13.640;2023-04-07T06:34:04;3.50;99.90
39825;DHT22;25503;52.532;13.640;2023-04-07T06:36:30;3.60;99.90
39825;DHT22;25503;52.532;13.640;2023-04-07T06:38:57;3.60;99.90
39825;DHT22;25503;52.532;13.640;2023-04-07T06:41:23;3.80;99.90
39825;DHT22;25503;52.532;13.640;2023-04-07T06:43:49;3.80;99.90
39825;DHT22;25503;52.532;13.640;2023-04-07T06:46:18;3.80;99.90
39825;DHT22;25503;52.532;13.640;2023-04-07T06:48:44;3.90;99.90
39825;DHT22;25503;52.532;13.640;2023-04-07T06:51:10;3.90;99.90
39825;DHT22;25503;52.532;13.640;2023-04-07T06:53:36;4.00;99.90
39825;DHT22;25503;52.532;13.640;2023-04-07T06:56:09;4.00;99.90
39825;DHT22;25503;52.532;13.640;2023-04-07T06:58:36;4.10;99.90
39825;DHT22;25503;52.532;13.640;2023-04-07T07:01:02;4.10;99.90
39825;DHT22;25503;52.532;13.640;2023-04-07T07:03:28;4.20;99.90
39825;DHT22;25503;52.532;13.640;2023-04-07T07:05:54;4.20;99.90
39825;DHT22;25503;52.532;13.640;2023-04-07T07:08:24;4.30;99.90
39825;DHT22;25503;52.532;13.640;2023-04-07T07:10:49;4.30;99.90
39825;DHT22;25503;52.532;13.640;2023-04-07T07:13:15;4.40;99.90
39825;DHT22;25503;52.532;13.640;2023-04-07T07:15:41;4.50;99.90
39825;DHT22;25503;52.532;13.640;2023-04-07T07:18:06;4.50;99.90
39825;DHT22;25503;52.532;13.640;2023-04-07T07:20:32;4.70;99.90
39825;DHT22;25503;52.532;13.640;2023-04-07T07:22:57;4.70;99.90
39825;DHT22;25503;52.532;13.640;2023-04-07T07:25:24;4.80;99.90
39825;DHT22;25503;52.532;13.640;2023-04-07T07:27:51;4.90;99.90
39825;DHT22;25503;52.532;13.640;2023-04-07T07:30:22;4.90;99.90
39825;DHT22;25503;52.532;13.640;2023-04-07T07:32:48;5.00;99.90
39825;DHT22;25503;52.532;13.640;2023-04-07T07:35:14;5.10;99.90
39825;DHT22;25503;52.532;13.640;2023-04-07T07:37:40;5.10;99.90
39825;DHT22;25503;52.532;13.640;2023-04-07T07:40:06;5.20;99.90
39825;DHT22;25503;52.532;13.640;2023-04-07T07:42:32;5.10;99.90
39825;DHT22;25503;52.532;13.640;2023-04-07T07:44:58;5.30;99.90
39825;DHT22;25503;52.532;13.640;2023-04-07T07:47:24;5.30;99.90
39825;DHT22;25503;52.532;13.640;2023-04-07T07:49:50;5.40;99.90
39825;DHT22;25503;52.532;13.640;2023-04-07T07:52:16;5.40;99.90
39825;DHT22;25503;52.532;13.640;2023-04-07T07:54:41;5.50;99.90
39825;DHT22;25503;52.532;13.640;2023-04-07T07:57:07;5.60;99.90
39825;DHT22;25503;52.532;13.640;2023-04-07T07:59:33;5.70;99.90
39825;DHT22;25503;52.532;13.640;2023-04-07T08:01:58;5.70;99.90
39825;DHT22;25503;52.532;13.640;2023-04-07T08:04:24;5.80;99.90
39825;DHT22;25503;52.532;13.640;2023-04-07T08:06:51;5.90;99.90
39825;DHT22;25503;52.532;13.640;2023-04-07T08:09:19;5.90;99.90
39825;DHT22;25503;52.532;13.640;2023-04-07T08:11:45;6.00;99.90
39825;DHT22;25503;52.532;13.640;2023-04-07T08:14:13;6.10;99.90
39825;DHT22;25503;52.532;13.640;2023-04-07T08:16:38;6.10;99.90
39825;DHT22;25503;52.532;13.640;2023-04-07T08:19:05;6.10;99.90
39825;DHT22;25503;52.532;13.640;2023-04-07T08:21:30;6.10;99.90
39825;DHT22;25503;52.532;13.640;2023-04-07T08:23:56;6.10;99.90
39825;DHT22;25503;52.532;13.640;2023-04-07T08:26:22;6.10;99.90
39825;DHT22;25503;52.532;13.640;2023-04-07T08:28:48;6.20;99.90
39825;DHT22;25503;52.532;13.640;2023-04-07T08:31:16;6.10;99.90
39825;DHT22;25503;52.532;13.640;2023-04-07T08:33:41;6.30;99.90
39825;DHT22;25503;52.532;13.640;2023-04-07T08:36:07;6.10;99.90
39825;DHT22;25503;52.532;13.640;2023-04-07T08:38:33;6.10;99.90
39825;DHT22;25503;52.532;13.640;2023-04-07T08:41:09;6.10;99.90
39825;DHT22;25503;52.532;13.640;2023-04-07T08:43:37;6.10;99.90
39825;DHT22;25503;52.532;13.640;2023-04-07T08:46:04;6.10;99.90
39825;DHT22;25503;52.532;13.640;2023-04-07T08:48:31;6.10;99.90
39825;DHT22;25503;52.532;13.640;2023-04-07T08:51:04;6.10;99.90
39825;DHT22;25503;52.532;13.640;2023-04-07T08:53:37;6.10;99.90
39825;DHT22;25503;52.532;13.640;2023-04-07T08:56:05;6.10;99.90
39825;DHT22;25503;52.532;13.640;2023-04-07T08:58:32;6.10;99.90
39825;DHT22;25503;52.532;13.640;2023-04-07T09:00:58;6.00;99.90
39825;DHT22;25503;52.532;13.640;2023-04-07T09:03:25;6.10;99.90
39825;DHT22;25503;52.532;13.640;2023-04-07T09:05:51;6.10;99.90
39825;DHT22;25503;52.532;13.640;2023-04-07T09:08:17;6.10;99.90
39825;DHT22;25503;52.532;13.640;2023-04-07T09:10:42;6.00;99.90
39825;DHT22;25503;52.532;13.640;2023-04-07T09:13:08;6.00;99.90
39825;DHT22;25503;52.532;13.640;2023-04-07T09:15:34;6.00;99.90
39825;DHT22;25503;52.532;13.640;2023-04-07T09:18:00;6.00;99.90
39825;DHT22;25503;52.532;13.640;2023-04-07T09:20:25;6.20;99.90
39825;DHT22;25503;52.532;13.640;2023-04-07T09:22:51;6.10;99.90
39825;DHT22;25503;52.532;13.640;2023-04-07T09:25:19;6.10;99.90
39825;DHT22;25503;52.532;13.640;2023-04-07T09:30:22;6.20;99.90
39825;DHT22;25503;52.532;13.640;2023-04-07T09:32:48;6.20;99.90
39825;DHT22;25503;52.532;13.640;2023-04-07T09:35:13;6.20;99.90
39825;DHT22;25503;52.532;13.640;2023-04-07T09:37:39;6.20;99.90
39825;DHT22;25503;52.532;13.640;2023-04-07T09:40:08;6.20;99.90
39825;DHT22;25503;52.532;13.640;2023-04-07T09:42:34;6.20;99.90
39825;DHT22;25503;52.532;13.640;2023-04-07T09:45:02;6.20;99.90
39825;DHT22;25503;52.532;13.640;2023-04-07T09:47:29;6.10;99.90
39825;DHT22;25503;52.532;13.640;2023-04-07T09:49:56;6.00;99.90
39825;DHT22;25503;52.532;13.640;2023-04-07T09:52:24;6.10;99.90
39825;DHT22;25503;52.532;13.640;2023-04-07T09:54:52;6.00;99.90
39825;DHT22;25503;52.532;13.640;2023-04-07T09:57:20;6.00;99.90
39825;DHT22;25503;52.532;13.640;2023-04-07T09:59:46;6.00;99.90
39825;DHT22;25503;52.532;13.640;2023-04-07T10:02:13;6.00;99.90
39825;DHT22;25503;52.532;13.640;2023-04-07T10:04:38;6.00;99.90
39825;DHT22;25503;52.532;13.640;2023-04-07T10:07:08;6.00;99.90
39825;DHT22;25503;52.532;13.640;2023-04-07T10:09:33;6.00;99.90
39825;DHT22;25503;52.532;13.640;2023-04-07T10:11:59;6.00;99.90
39825;DHT22;25503;52.532;13.640;2023-04-07T10:14:27;6.10;99.90
39825;DHT22;25503;52.532;13.640;2023-04-07T10:16:54;6.10;99.90
39825;DHT22;25503;52.532;13.640;2023-04-07T10:19:22;6.10;99.90
39825;DHT22;25503;52.532;13.640;2023-04-07T10:21:51;6.10;99.90
39825;DHT22;25503;52.532;13.640;2023-04-07T10:24:39;6.10;99.90
39825;DHT22;25503;52.532;13.640;2023-04-07T10:27:10;6.10;99.90
39825;DHT22;25503;52.532;13.640;2023-04-07T10:29:41;6.10;99.90
39825;DHT22;25503;52.532;13.640;2023-04-07T10:32:08;6.20;99.90
39825;DHT22;25503;52.532;13.640;2023-04-07T10:37:15;6.20;99.90
39825;DHT22;25503;52.532;13.640;2023-04-07T10:42:46;6.30;99.90
39825;DHT22;25503;52.532;13.640;2023-04-07T10:45:12;6.20;99.90
39825;DHT22;25503;52.532;13.640;2023-04-07T10:50:22;6.30;99.90
39825;DHT22;25503;52.532;13.640;2023-04-07T10:53:03;6.30;99.90
39825;DHT22;25503;52.532;13.640;2023-04-07T10:55:33;6.30;99.90
39825;DHT22;25503;52.532;13.640;2023-04-07T11:00:42;6.20;99.90
39825;DHT22;25503;52.532;13.640;2023-04-07T11:03:11;6.20;99.90
39825;DHT22;25503;52.532;13.640;2023-04-07T11:05:39;6.20;99.90
39825;DHT22;25503;52.532;13.640;2023-04-07T11:08:05;6.30;99.90
39825;DHT22;25503;52.532;13.640;2023-04-07T11:10:35;6.20;99.90
39825;DHT22;25503;52.532;13.640;2023-04-07T11:13:07;6.20;99.90
39825;DHT22;25503;52.532;13.640;2023-04-07T11:15:36;6.20;99.90
39825;DHT22;25503;52.532;13.640;2023-04-07T11:18:21;6.10;99.90
39825;DHT22;25503;52.532;13.640;2023-04-07T11:20:54;6.10;99.90
39825;DHT22;25503;52.532;13.640;2023-04-07T11:23:22;6.00;99.90
39825;DHT22;25503;52.532;13.640;2023-04-07T11:25:50;6.10;99.90
39825;DHT22;25503;52.532;13.640;2023-04-07T11:28:16;6.00;99.90
39825;DHT22;25503;52.532;13.640;2023-04-07T11:30:50;6.00;99.90
39825;DHT22;25503;52.532;13.640;2023-04-07T11:33:21;6.10;99.90
39825;DHT22;25503;52.532;13.640;2023-04-07T11:35:55;6.10;99.90
39825;DHT22;25503;52.532;13.640;2023-04-07T11:38:23;6.10;99.90
39825;DHT22;25503;52.532;13.640;2023-04-07T11:40:49;6.10;99.90
39825;DHT22;25503;52.532;13.640;2023-04-07T11:43:23;6.00;99.90
39825;DHT22;25503;52.532;13.640;2023-04-07T11:46:05;6.00;99.90
39825;DHT22;25503;52.532;13.640;2023-04-07T11:48:32;5.90;99.90
39825;DHT22;25503;52.532;13.640;2023-04-07T11:50:59;5.90;99.90
39825;DHT22;25503;52.532;13.640;2023-04-07T11:53:35;5.80;99.90
39825;DHT22;25503;52.532;13.640;2023-04-07T11:56:10;5.80;99.90
39825;DHT22;25503;52.532;13.640;2023-04-07T11:58:49;5.80;99.90
39825;DHT22;25503;52.532;13.640;2023-04-07T12:01:15;5.80;99.90
39825;DHT22;25503;52.532;13.640;2023-04-07T12:03:58;5.70;99.90
39825;DHT22;25503;52.532;13.640;2023-04-07T12:06:32;5.70;99.90
39825;DHT22;25503;52.532;13.640;2023-04-07T12:09:03;5.70;99.90
39825;DHT22;25503;52.532;13.640;2023-04-07T12:11:30;5.70;99.90
39825;DHT22;25503;52.532;13.640;2023-04-07T12:13:56;5.70;99.90
39825;DHT22;25503;52.532;13.640;2023-04-07T12:16:22;5.70;99.90
39825;DHT22;25503;52.532;13.640;2023-04-07T12:18:49;5.70;99.90
39825;DHT22;25503;52.532;13.640;2023-04-07T12:21:19;5.70;99.90
39825;DHT22;25503;52.532;13.640;2023-04-07T12:23:47;5.80;99.90
39825;DHT22;25503;52.532;13.640;2023-04-07T12:26:13;5.80;99.90
39825;DHT22;25503;52.532;13.640;2023-04-07T12:28:38;5.90;99.90
39825;DHT22;25503;52.532;13.640;2023-04-07T12:31:04;6.00;99.90
39825;DHT22;25503;52.532;13.640;2023-04-07T12:33:30;6.00;99.90
39825;DHT22;25503;52.532;13.640;2023-04-07T12:35:56;6.10;99.90
39825;DHT22;25503;52.532;13.640;2023-04-07T12:38:22;6.20;99.90
39825;DHT22;25503;52.532;13.640;2023-04-07T12:40:48;6.20;99.90
39825;DHT22;25503;52.532;13.640;2023-04-07T12:43:13;6.10;99.90
39825;DHT22;25503;52.532;13.640;2023-04-07T12:45:39;6.10;99.90
39825;DHT22;25503;52.532;13.640;2023-04-07T12:48:04;6.10;99.90
39825;DHT22;25503;52.532;13.640;2023-04-07T12:50:30;6.10;99.90
39825;DHT22;25503;52.532;13.640;2023-04-07T12:52:56;6.20;99.90
39825;DHT22;25503;52.532;13.640;2023-04-07T12:55:24;6.20;99.90
39825;DHT22;25503;52.532;13.640;2023-04-07T12:57:50;6.10;99.90
39825;DHT22;25503;52.532;13.640;2023-04-07T13:00:15;6.20;99.90
39825;DHT22;25503;52.532;13.640;2023-04-07T13:02:41;6.20;99.90
39825;DHT22;25503;52.532;13.640;2023-04-07T13:05:07;6.20;99.90
39825;DHT22;25503;52.532;13.640;2023-04-07T13:07:33;6.20;99.90
39825;DHT22;25503;52.532;13.640;2023-04-07T13:10:01;6.20;99.90
39825;DHT22;25503;52.532;13.640;2023-04-07T13:12:26;6.20;99.90
39825;DHT22;25503;52.532;13.640;2023-04-07T13:14:52;6.20;99.90
39825;DHT22;25503;52.532;13.640;2023-04-07T13:17:18;6.30;99.90
39825;DHT22;25503;52.532;13.640;2023-04-07T13:19:43;6.20;99.90
39825;DHT22;25503;52.532;13.640;2023-04-07T13:22:11;6.20;99.90
39825;DHT22;25503;52.532;13.640;2023-04-07T13:24:37;6.20;99.90
39825;DHT22;25503;52.532;13.640;2023-04-07T13:27:03;6.20;99.90
39825;DHT22;25503;52.532;13.640;2023-04-07T13:29:29;6.20;99.90
39825;DHT22;25503;52.532;13.640;2023-04-07T13:32:04;6.20;99.90
39825;DHT22;25503;52.532;13.640;2023-04-07T13:34:29;6.20;99.90
39825;DHT22;25503;52.532;13.640;2023-04-07T13:36:55;6.20;99.90
39825;DHT22;25503;52.532;13.640;2023-04-07T13:39:21;6.20;99.90
39825;DHT22;25503;52.532;13.640;2023-04-07T13:41:46;6.10;99.90
39825;DHT22;25503;52.532;13.640;2023-04-07T13:44:12;6.20;99.90
39825;DHT22;25503;52.532;13.640;2023-04-07T13:46:37;6.20;99.90
39825;DHT22;25503;52.532;13.640;2023-04-07T13:49:03;6.10;99.90
39825;DHT22;25503;52.532;13.640;2023-04-07T13:51:28;6.20;99.90
39825;DHT22;25503;52.532;13.640;2023-04-07T13:53:54;6.20;99.90
39825;DHT22;25503;52.532;13.640;2023-04-07T13:56:20;6.10;99.90
39825;DHT22;25503;52.532;13.640;2023-04-07T13:58:46;6.10;99.90
39825;DHT22;25503;52.532;13.640;2023-04-07T14:01:12;6.10;99.90
39825;DHT22;25503;52.532;13.640;2023-04-07T14:03:38;6.10;99.90
39825;DHT22;25503;52.532;13.640;2023-04-07T14:06:03;6.10;99.90
39825;DHT22;25503;52.532;13.640;2023-04-07T14:08:29;6.00;99.90
39825;DHT22;25503;52.532;13.640;2023-04-07T14:10:54;6.00;99.90
39825;DHT22;25503;52.532;13.640;2023-04-07T14:13:20;6.00;99.90
39825;DHT22;25503;52.532;13.640;2023-04-07T14:15:46;6.00;99.90
39825;DHT22;25503;52.532;13.640;2023-04-07T14:18:13;5.90;99.90
39825;DHT22;25503;52.532;13.640;2023-04-07T14:20:38;6.00;99.90
39825;DHT22;25503;52.532;13.640;2023-04-07T14:23:04;6.00;99.90
39825;DHT22;25503;52.532;13.640;2023-04-07T14:25:30;6.10;99.90
39825;DHT22;25503;52.532;13.640;2023-04-07T14:27:56;6.00;99.90
39825;DHT22;25503;52.532;13.640;2023-04-07T14:30:22;6.00;99.90
39825;DHT22;25503;52.532;13.640;2023-04-07T14:32:47;6.20;99.90
39825;DHT22;25503;52.532;13.640;2023-04-07T14:35:13;6.10;99.90
39825;DHT22;25503;52.532;13.640;2023-04-07T14:37:38;6.10;99.90
39825;DHT22;25503;52.532;13.640;2023-04-07T14:40:05;6.10;99.90
39825;DHT22;25503;52.532;13.640;2023-04-07T14:42:31;6.10;99.90
39825;DHT22;25503;52.532;13.640;2023-04-07T14:44:58;6.00;99.90
39825;DHT22;25503;52.532;13.640;2023-04-07T14:47:24;6.10;99.90
39825;DHT22;25503;52.532;13.640;2023-04-07T14:49:50;6.10;99.90
39825;DHT22;25503;52.532;13.640;2023-04-07T14:52:16;6.00;99.90
39825;DHT22;25503;52.532;13.640;2023-04-07T14:54:41;6.10;99.90
39825;DHT22;25503;52.532;13.640;2023-04-07T14:57:07;6.10;99.90
39825;DHT22;25503;52.532;13.640;2023-04-07T14:59:33;6.10;99.90
39825;DHT22;25503;52.532;13.640;2023-04-07T15:01:58;6.20;99.90
39825;DHT22;25503;52.532;13.640;2023-04-07T15:04:24;6.10;99.90
39825;DHT22;25503;52.532;13.640;2023-04-07T15:06:49;6.10;99.90
39825;DHT22;25503;52.532;13.640;2023-04-07T15:09:15;6.10;99.90
39825;DHT22;25503;52.532;13.640;2023-04-07T15:11:40;6.10;99.90
39825;DHT22;25503;52.532;13.640;2023-04-07T15:14:06;6.20;99.90
39825;DHT22;25503;52.532;13.640;2023-04-07T15:16:32;6.10;99.90
39825;DHT22;25503;52.532;13.640;2023-04-07T15:18:58;6.10;99.90
39825;DHT22;25503;52.532;13.640;2023-04-07T15:21:23;6.00;99.90
39825;DHT22;25503;52.532;13.640;2023-04-07T15:23:49;6.10;99.90
39825;DHT22;25503;52.532;13.640;2023-04-07T15:26:15;6.00;99.90
39825;DHT22;25503;52.532;13.640;2023-04-07T15:28:40;6.10;99.90
39825;DHT22;25503;52.532;13.640;2023-04-07T15:31:06;6.10;99.90
39825;DHT22;25503;52.532;13.640;2023-04-07T15:33:35;6.00;99.90
39825;DHT22;25503;52.532;13.640;2023-04-07T15:36:02;6.00;99.90
39825;DHT22;25503;52.532;13.640;2023-04-07T15:38:28;6.10;99.90
39825;DHT22;25503;52.532;13.640;2023-04-07T15:40:53;6.10;99.90
39825;DHT22;25503;52.532;13.640;2023-04-07T15:43:19;6.20;99.90
39825;DHT22;25503;52.532;13.640;2023-04-07T15:45:44;6.10;99.90
39825;DHT22;25503;52.532;13.640;2023-04-07T15:48:11;6.10;99.90
39825;DHT22;25503;52.532;13.640;2023-04-07T15:50:37;6.20;99.90